Time;durP1;ratioP1;P1;durP2;ratioP2;P2;SDS_P1;SDS_P2;PMS_P1;PMS_P2;Temp;Humidity;BMP_temperature;BMP_pressure;BME280_temperature;BME280_humidity;BME280_pressure;Samples;Min_cycle;Max_cycle;Signal;HPM_P1;HPM_P2
2023/05/16 00:00:34;;;;;;;3.42;1.17;;;;;;;;;;4979369;28;20031;-80
2023/05/16 00:03:04;;;;;;;5.35;1.20;;;18.20;67.40;;;;;;4979106;28;20121;-80
2023/05/16 00:05:30;;;;;;;2.83;0.98;;;;;;;;;;4979404;28;20046;-80
2023/05/16 00:07:56;;;;;;;3.00;1.10;;;;;;;;;;4961936;28;20167;-80
2023/05/16 00:10:22;;;;;;;4.25;1.02;;;;;;;;;;4979378;28;20047;-79
2023/05/16 00:12:50;;;;;;;2.25;0.95;;;;;;;;;;4979330;28;20528;-80
2023/05/16 00:15:17;;;;;;;3.17;1.08;;;;;;;;;;4979425;28;20023;-74
2023/05/16 00:17:46;;;;;;;1.65;0.75;;;;;;;;;;4979259;28;20434;-74
2023/05/16 00:20:13;;;;;;;4.93;1.25;;;18.20;68.40;;;;;;4979194;28;20030;-74
2023/05/16 00:22:39;;;;;;;2.28;0.77;;;;;;;;;;4979091;28;20027;-74
2023/05/16 00:25:07;;;;;;;3.63;0.90;;;18.40;66.60;;;;;;4979385;28;20058;-74
2023/05/16 00:27:34;;;;;;;3.10;0.90;;;;;;;;;;4979398;28;20041;-74
2023/05/16 00:30:01;;;;;;;2.30;0.80;;;;;;;;;;4979060;28;20023;-74
2023/05/16 00:32:28;;;;;;;2.80;0.70;;;;;;;;;;4979371;28;20034;-80
2023/05/16 00:34:55;;;;;;;2.47;1.00;;;;;;;;;;4979360;28;20110;-74
2023/05/16 00:37:21;;;;;;;3.15;0.80;;;;;;;;;;4977095;28;20407;-73
2023/05/16 00:39:48;;;;;;;2.28;0.90;;;;;;;;;;4976261;28;20073;-74
2023/05/16 00:42:14;;;;;;;3.17;1.20;;;;;;;;;;4958967;28;20049;-74
2023/05/16 00:44:40;;;;;;;2.78;1.00;;;;;;;;;;4976202;28;20397;-74
2023/05/16 00:47:07;;;;;;;2.60;0.75;;;;;;;;;;4975920;28;20031;-74
2023/05/16 00:49:33;;;;;;;2.97;0.73;;;;;;;;;;4976091;28;20023;-74
2023/05/16 00:52:00;;;;;;;3.58;1.33;;;;;;;;;;4976382;28;20109;-80
2023/05/16 00:54:28;;;;;;;1.60;0.82;;;;;;;;;;4975914;28;20023;-80
2023/05/16 00:56:55;;;;;;;3.03;0.88;;;;;;;;;;4958805;28;20038;-80
2023/05/16 00:59:22;;;;;;;2.10;0.80;;;;;;;;;;4976081;28;20134;-80
2023/05/16 01:01:49;;;;;;;3.83;0.88;;;;;;;;;;4981099;28;20039;-79
2023/05/16 01:04:15;;;;;;;4.40;1.02;;;;;;;;;;4988832;28;20381;-80
2023/05/16 01:06:41;;;;;;;2.47;0.65;;;;;;;;;;4972265;28;20162;-80
2023/05/16 01:09:07;;;;;;;2.58;0.60;;;;;;;;;;4988608;28;20031;-75
2023/05/16 01:11:49;;;;;;;3.55;1.15;;;17.80;63.20;;;;;;4975869;28;20093;-73
2023/05/16 01:14:51;;;;;;;3.85;1.20;;;17.80;63.30;;;;;;4975439;28;20027;-74
2023/05/16 01:17:28;;;;;;;2.13;0.90;;;17.80;62.70;;;;;;4975389;28;20039;-74
2023/05/16 01:20:05;;;;;;;4.53;1.00;;;17.70;59.70;;;;;;4975334;28;20038;-74
2023/05/16 01:22:36;;;;;;;3.28;0.82;;;17.80;61.40;;;;;;4975195;28;20135;-74
2023/05/16 01:25:31;;;;;;;2.22;0.50;;;17.70;62.30;;;;;;4975154;28;20023;-74
2023/05/16 01:27:58;;;;;;;1.13;0.70;;;17.80;67.50;;;;;;4975564;28;20019;-74
2023/05/16 01:30:24;;;;;;;2.20;0.40;;;;;;;;;;4975090;28;20034;-74
2023/05/16 01:32:50;;;;;;;1.65;0.70;;;;;;;;;;4957605;28;20481;-74
2023/05/16 01:35:17;;;;;;;1.65;0.70;;;;;;;;;;4975069;28;20053;-74
2023/05/16 01:38:05;;;;;;;1.92;0.70;;;17.70;62.70;;;;;;4974895;28;20030;-74
2023/05/16 01:40:31;;;;;;;1.33;0.70;;;;;;;;;;4974971;28;20046;-74
2023/05/16 01:42:59;;;;;;;2.10;0.70;;;17.70;69.10;;;;;;4974812;28;20493;-74
2023/05/16 01:45:33;;;;;;;1.60;0.40;;;17.60;59.10;;;;;;4975208;28;20026;-74
2023/05/16 01:48:15;;;;;;;2.83;0.55;;;17.60;59.60;;;;;;4974879;28;20031;-74
2023/05/16 01:50:47;;;;;;;2.10;0.65;;;17.60;59.70;;;;;;4974670;28;20061;-74
2023/05/16 01:53:21;;;;;;;2.22;1.00;;;17.60;60.10;;;;;;4974717;28;20496;-74
2023/05/16 01:55:56;;;;;;;4.35;0.82;;;17.60;60.80;;;;;;4974669;28;20497;-74
2023/05/16 01:58:26;;;;;;;3.13;0.80;;;17.60;65.70;;;;;;4974603;28;20027;-74
2023/05/16 02:00:52;;;;;;;4.70;0.88;;;17.60;63.70;;;;;;4974530;28;20076;-74
2023/05/16 02:03:18;;;;;;;3.55;0.82;;;;;;;;;;4974097;28;20454;-74
2023/05/16 02:05:44;;;;;;;1.35;0.68;;;;;;;;;;4974727;28;20034;-74
2023/05/16 02:08:10;;;;;;;1.58;0.63;;;;;;;;;;4974398;28;20053;-74
2023/05/16 02:10:38;;;;;;;2.83;0.75;;;;;;;;;;4974326;28;20493;-74
2023/05/16 02:13:04;;;;;;;3.13;0.80;;;;;;;;;;4974321;28;20058;-74
2023/05/16 02:15:30;;;;;;;3.17;0.65;;;;;;;;;;4956887;28;20034;-73
2023/05/16 02:17:57;;;;;;;3.78;0.90;;;;;;;;;;4974221;28;20039;-74
2023/05/16 02:20:23;;;;;;;1.50;0.50;;;;;;;;;;4974261;28;20046;-74
2023/05/16 02:22:49;;;;;;;1.40;0.82;;;;;;;;;;4974021;28;20081;-80
2023/05/16 02:25:15;;;;;;;1.85;0.60;;;;;;;;;;4956957;28;20488;-80
2023/05/16 02:27:42;;;;;;;1.67;0.73;;;;;;;;;;4973951;28;20062;-79
2023/05/16 02:30:11;;;;;;;1.67;0.70;;;17.40;65.30;;;;;;4974127;28;20054;-80
2023/05/16 02:32:43;;;;;;;1.30;0.55;;;;;;;;;;4974018;28;20073;-79
2023/05/16 02:35:10;;;;;;;2.13;0.70;;;;;;;;;;4974030;28;20018;-79
2023/05/16 02:37:36;;;;;;;2.97;0.80;;;;;;;;;;4973820;28;20157;-80
2023/05/16 02:40:04;;;;;;;1.80;0.85;;;;;;;;;;4973816;28;20086;-79
2023/05/16 02:42:31;;;;;;;1.25;0.40;;;;;;;;;;4974083;28;20042;-80
2023/05/16 02:44:57;;;;;;;2.75;0.60;;;;;;;;;;4940622;28;20030;-79
2023/05/16 02:47:23;;;;;;;2.13;0.60;;;;;;;;;;4973785;28;20108;-80
2023/05/16 02:49:51;;;;;;;3.63;0.60;;;;;;;;;;4973617;28;20098;-80
2023/05/16 02:52:17;;;;;;;2.65;0.60;;;;;;;;;;4973687;28;20061;-79
2023/05/16 02:54:42;;;;;;;2.10;0.65;;;;;;;;;;4973679;28;20089;-79
2023/05/16 02:57:09;;;;;;;2.05;0.80;;;;;;;;;;4973618;28;20070;-80
2023/05/16 02:59:35;;;;;;;2.00;0.63;;;;;;;;;;4973619;28;20059;-74
2023/05/16 03:02:01;;;;;;;1.65;0.65;;;;;;;;;;4972891;28;20055;-79
2023/05/16 03:04:27;;;;;;;1.70;0.65;;;;;;;;;;4973621;28;20053;-80
2023/05/16 03:06:53;;;;;;;1.17;0.65;;;;;;;;;;4973464;28;20039;-79
2023/05/16 03:09:20;;;;;;;2.15;0.40;;;;;;;;;;4973430;28;20114;-80
2023/05/16 03:11:46;;;;;;;1.95;0.60;;;;;;;;;;4973940;28;20563;-79
2023/05/16 03:14:12;;;;;;;2.08;0.55;;;;;;;;;;4973407;28;20114;-79
2023/05/16 03:16:40;;;;;;;1.08;0.60;;;;;;;;;;4973373;28;20490;-79
2023/05/16 03:19:06;;;;;;;3.45;0.50;;;;;;;;;;4973309;28;20050;-73
2023/05/16 03:21:32;;;;;;;1.73;0.47;;;;;;;;;;4973201;28;20034;-73
2023/05/16 03:23:58;;;;;;;2.25;0.63;;;;;;;;;;4973173;28;20031;-73
2023/05/16 03:26:24;;;;;;;1.63;0.43;;;;;;;;;;4973247;28;20105;-73
2023/05/16 03:28:50;;;;;;;1.95;0.50;;;;;;;;;;4973157;28;20038;-73
2023/05/16 03:31:17;;;;;;;2.75;0.45;;;;;;;;;;4973176;28;20105;-73
2023/05/16 03:33:43;;;;;;;0.82;0.50;;;;;;;;;;4973193;28;20027;-74
2023/05/16 03:36:09;;;;;;;1.30;0.40;;;;;;;;;;4973203;28;20053;-79
2023/05/16 03:38:35;;;;;;;1.27;0.60;;;;;;;;;;4973254;28;20027;-79
2023/05/16 03:41:01;;;;;;;1.90;0.50;;;;;;;;;;4973296;28;20451;-79
2023/05/16 03:43:27;;;;;;;1.95;0.40;;;;;;;;;;4973086;28;20121;-79
2023/05/16 03:45:54;;;;;;;1.33;0.65;;;;;;;;;;4973133;28;20504;-79
2023/05/16 03:48:20;;;;;;;1.77;0.95;;;;;;;;;;4973308;28;20422;-80
2023/05/16 03:50:46;;;;;;;5.75;0.60;;;;;;;;;;4973140;28;20127;-79
2023/05/16 03:53:12;;;;;;;4.03;0.57;;;;;;;;;;4973222;28;20026;-79
2023/05/16 03:55:38;;;;;;;1.77;0.60;;;;;;;;;;4973311;28;20081;-79
2023/05/16 03:58:05;;;;;;;2.05;0.50;;;;;;;;;;4973057;28;20035;-79
2023/05/16 04:00:31;;;;;;;4.07;0.55;;;;;;;;;;4973034;28;20041;-79
2023/05/16 04:02:57;;;;;;;3.15;0.77;;;;;;;;;;4972625;28;20109;-79
2023/05/16 04:05:24;;;;;;;2.03;0.75;;;;;;;;;;4973198;28;20052;-79
2023/05/16 04:07:50;;;;;;;1.67;0.60;;;;;;;;;;4972948;28;20166;-79
2023/05/16 04:10:16;;;;;;;1.33;0.50;;;;;;;;;;4972939;28;20513;-78
2023/05/16 04:12:43;;;;;;;1.63;0.70;;;;;;;;;;4973394;28;20079;-79
2023/05/16 04:15:09;;;;;;;2.25;0.40;;;;;;;;;;4976601;28;20039;-79
2023/05/16 04:17:35;;;;;;;1.65;0.80;;;;;;;;;;4976624;28;20034;-79
2023/05/16 04:20:02;;;;;;;1.38;0.60;;;;;;;;;;4958987;28;20472;-79
2023/05/16 04:22:28;;;;;;;1.13;0.65;;;;;;;;;;4958904;28;20043;-79
2023/05/16 04:24:55;;;;;;;1.92;0.80;;;;;;;;;;4976593;28;20045;-79
2023/05/16 04:27:20;;;;;;;2.35;0.68;;;;;;;;;;4976224;28;20474;-79
2023/05/16 04:29:46;;;;;;;1.42;0.60;;;;;;;;;;4976274;28;20034;-79
2023/05/16 04:32:12;;;;;;;1.77;0.90;;;;;;;;;;4976147;28;20473;-73
2023/05/16 04:34:39;;;;;;;3.72;1.52;;;;;;;;;;4976075;28;20082;-73
2023/05/16 04:37:07;;;;;;;2.63;1.30;;;;;;;;;;4976360;28;20228;-73
2023/05/16 04:39:33;;;;;;;3.17;1.27;;;;;;;;;;4976006;28;20048;-73
2023/05/16 04:42:00;;;;;;;1.88;1.48;;;;;;;;;;4975896;28;20027;-73
2023/05/16 04:44:26;;;;;;;2.88;2.00;;;;;;;;;;4975901;28;20026;-74
2023/05/16 04:46:52;;;;;;;2.58;2.28;;;;;;;;;;4975872;28;20074;-73
2023/05/16 04:49:18;;;;;;;2.63;2.30;;;16.90;66.50;;;;;;4975783;28;20039;-73
2023/05/16 04:51:44;;;;;;;2.60;2.40;;;;;;;;;;4975950;28;20421;-80
2023/05/16 04:54:10;;;;;;;3.35;3.05;;;;;;;;;;4975861;28;20429;-79
2023/05/16 04:56:37;;;;;;;3.67;3.38;;;;;;;;;;4975806;28;20118;-79
2023/05/16 04:59:03;;;;;;;3.75;3.47;;;;;;;;;;4975678;28;20183;-80
2023/05/16 05:01:29;;;;;;;3.85;3.55;;;;;;;;;;4975473;28;20030;-80
2023/05/16 05:03:55;;;;;;;3.50;3.30;;;;;;;;;;4975522;28;20043;-80
2023/05/16 05:06:21;;;;;;;4.15;3.85;;;;;;;;;;4975575;28;20126;-80
2023/05/16 05:08:47;;;;;;;4.30;3.97;;;;;;;;;;4975540;28;20062;-79
2023/05/16 05:11:13;;;;;;;4.28;3.78;;;;;;;;;;4975624;28;20462;-79
2023/05/16 05:13:39;;;;;;;4.15;3.85;;;;;;;;;;4975406;28;20033;-79
2023/05/16 05:16:05;;;;;;;4.60;4.18;;;;;;;;;;4975359;28;20385;-79
2023/05/16 05:18:31;;;;;;;4.55;4.25;;;;;;;;;;4975324;28;20085;-79
2023/05/16 05:20:57;;;;;;;5.45;4.20;;;;;;;;;;4975439;28;20101;-78
2023/05/16 05:23:23;;;;;;;4.28;3.88;;;;;;;;;;4974889;28;20118;-79
2023/05/16 05:25:50;;;;;;;4.15;3.85;;;;;;;;;;4958261;28;20030;-78
2023/05/16 05:28:16;;;;;;;3.60;3.40;;;;;;;;;;4957827;28;20027;-82
2023/05/16 05:30:42;;;;;;;4.00;3.72;;;;;;;;;;4975071;28;20058;-79
2023/05/16 05:33:08;;;;;;;4.68;4.30;;;;;;;;;;4975130;28;20030;-77
2023/05/16 05:35:33;;;;;;;4.55;3.70;;;;;;;;;;4974909;28;20478;-77
2023/05/16 05:38:00;;;;;;;4.15;3.60;;;;;;;;;;4975035;28;20063;-78
2023/05/16 05:40:26;;;;;;;3.70;3.40;;;;;;;;;;4974912;28;20038;-77
2023/05/16 05:42:52;;;;;;;5.22;4.45;;;;;;;;;;4974722;28;20038;-76
2023/05/16 05:45:18;;;;;;;3.83;3.53;;;;;;;;;;4974823;28;20023;-77
2023/05/16 05:47:44;;;;;;;3.83;3.25;;;;;;;;;;4974716;28;20034;-80
2023/05/16 05:50:11;;;;;;;3.15;2.95;;;;;;;;;;4974708;28;20030;-81
2023/05/16 05:52:37;;;;;;;3.20;2.90;;;;;;;;;;4974714;28;20086;-78
2023/05/16 05:55:04;;;;;;;3.20;3.00;;;;;;;;;;4974624;28;20037;-77
2023/05/16 05:57:30;;;;;;;3.20;2.90;;;;;;;;;;4975005;28;20031;-78
2023/05/16 05:59:56;;;;;;;2.72;2.53;;;;;;;;;;4975034;28;20113;-77
2023/05/16 06:02:22;;;;;;;3.85;3.13;;;;;;;;;;4974101;28;20110;-78
2023/05/16 06:04:48;;;;;;;2.85;2.60;;;;;;;;;;4974401;28;20029;-73
2023/05/16 06:07:15;;;;;;;2.42;2.22;;;;;;;;;;4974450;28;20053;-74
2023/05/16 06:09:42;;;;;;;3.42;2.25;;;;;;;;;;4974271;28;20054;-74
2023/05/16 06:12:08;;;;;;;5.93;2.50;;;;;;;;;;4974234;28;20066;-75
2023/05/16 06:14:34;;;;;;;4.05;2.35;;;;;;;;;;4974196;28;20073;-73
2023/05/16 06:17:00;;;;;;;2.55;2.08;;;;;;;;;;4974250;28;20039;-74
2023/05/16 06:19:27;;;;;;;3.92;2.30;;;;;;;;;;4974094;28;20426;-73
2023/05/16 06:21:53;;;;;;;3.00;2.08;;;;;;;;;;4974092;28;20035;-78
2023/05/16 06:24:19;;;;;;;3.38;2.40;;;;;;;;;;4974141;28;20030;-79
2023/05/16 06:26:48;;;;;;;2.50;1.90;;;;;;;;;;4974362;28;20027;-78
2023/05/16 06:29:16;;;;;;;3.07;1.90;;;;;;;;;;4974282;28;20042;-79
2023/05/16 06:31:42;;;;;;;2.88;1.88;;;;;;;;;;4974300;28;20622;-79
2023/05/16 06:34:08;;;;;;;2.10;1.70;;;;;;;;;;4973951;28;20035;-79
2023/05/16 06:36:34;;;;;;;4.00;1.83;;;;;;;;;;4973085;28;20025;-79
2023/05/16 06:39:01;;;;;;;2.03;1.48;;;;;;;;;;4974089;28;20041;-78
2023/05/16 06:41:27;;;;;;;1.75;1.45;;;;;;;;;;4974055;28;20027;-80
2023/05/16 06:43:54;;;;;;;2.17;1.50;;;;;;;;;;4974099;28;20035;-77
2023/05/16 06:46:20;;;;;;;3.28;1.42;;;;;;;;;;4973754;28;20034;-78
2023/05/16 06:48:47;;;;;;;5.28;1.27;;;;;;;;;;4973991;28;20038;-78
2023/05/16 06:51:13;;;;;;;1.58;1.48;;;;;;;;;;4973689;28;20023;-78
2023/05/16 06:53:39;;;;;;;2.17;1.30;;;;;;;;;;4973647;28;20038;-78
2023/05/16 06:56:06;;;;;;;2.88;1.42;;;;;;;;;;4973992;28;20442;-79
2023/05/16 06:58:32;;;;;;;3.13;1.40;;;;;;;;;;4973803;28;20042;-77
2023/05/16 07:00:59;;;;;;;1.70;1.20;;;;;;;;;;4973482;28;20085;-78
2023/05/16 07:03:25;;;;;;;3.10;1.20;;;;;;;;;;4973228;28;20054;-75
2023/05/16 07:05:51;;;;;;;2.42;1.13;;;;;;;;;;4973300;28;20423;-77
